createdAt,value
2022-11-12T00:00:27.000Z,5.78
2022-11-12T00:02:57.263Z,5.71
2022-11-12T00:05:26.033Z,5.69
2022-11-12T00:07:55.432Z,5.63
2022-11-12T00:10:23.902Z,5.60
2022-11-12T00:12:52.810Z,5.65
2022-11-12T00:15:21.240Z,5.63
2022-11-12T00:17:51.223Z,5.66
2022-11-12T00:20:20.897Z,5.63
2022-11-12T00:22:50.199Z,5.59
2022-11-12T00:25:19.643Z,5.57
2022-11-12T00:27:48.100Z,5.53
2022-11-12T00:30:19.490Z,5.53
2022-11-12T00:32:50.740Z,5.53
2022-11-12T00:35:24.888Z,5.52
2022-11-12T00:37:59.177Z,5.49
2022-11-12T00:40:30.391Z,5.47
2022-11-12T00:42:59.138Z,5.43
2022-11-12T00:45:27.325Z,5.36
2022-11-12T00:47:57.914Z,5.28
2022-11-12T00:50:26.202Z,5.25
2022-11-12T00:52:57.901Z,5.22
2022-11-12T00:55:26.221Z,5.18
2022-11-12T00:57:55.626Z,5.14
2022-11-12T01:00:26.721Z,5.11
2022-11-12T01:02:55.266Z,5.09
2022-11-12T01:05:23.638Z,5.07
2022-11-12T01:07:57.167Z,5.14
2022-11-12T01:10:28.081Z,5.14
2022-11-12T01:13:00.032Z,5.12
2022-11-12T01:15:29.496Z,5.08
2022-11-12T01:17:57.549Z,5.09
2022-11-12T01:20:27.616Z,4.99
2022-11-12T01:22:55.599Z,4.92
2022-11-12T01:25:24.961Z,4.83
2022-11-12T01:27:55.782Z,4.83
2022-11-12T01:30:26.374Z,4.80
2022-11-12T01:32:54.771Z,4.76
2022-11-12T01:35:23.024Z,4.70
2022-11-12T01:37:53.473Z,4.61
2022-11-12T01:40:21.628Z,4.57
2022-11-12T01:42:53.249Z,4.53
2022-11-12T01:45:23.511Z,4.47
2022-11-12T01:47:53.782Z,4.45
2022-11-12T01:50:25.917Z,4.40
2022-11-12T01:53:00.348Z,4.33
2022-11-12T01:55:31.179Z,4.32
2022-11-12T01:58:05.256Z,4.30
2022-11-12T02:00:35.628Z,4.25
2022-11-12T02:03:10.245Z,4.25
2022-11-12T02:05:42.288Z,4.25
2022-11-12T02:08:11.417Z,4.23
2022-11-12T02:10:42.417Z,4.22
2022-11-12T02:13:30.459Z,4.20
2022-11-12T02:16:01.633Z,4.18
2022-11-12T02:18:34.177Z,4.22
2022-11-12T02:21:14.293Z,4.25
2022-11-12T02:23:50.198Z,4.23
2022-11-12T02:26:18.200Z,4.22
2022-11-12T02:28:46.948Z,4.20
2022-11-12T02:31:17.313Z,4.20
2022-11-12T02:33:45.401Z,4.16
2022-11-12T02:36:13.801Z,4.12
2022-11-12T02:38:43.239Z,4.10
2022-11-12T02:41:13.088Z,4.12
2022-11-12T02:43:42.963Z,4.08
2022-11-12T02:46:11.567Z,4.02
2022-11-12T02:48:41.949Z,4.01
2022-11-12T02:51:10.391Z,3.98
2022-11-12T02:53:38.936Z,3.94
2022-11-12T02:56:07.353Z,3.91
2022-11-12T02:58:36.983Z,3.84
2022-11-12T03:01:07.096Z,3.80
2022-11-12T03:03:35.169Z,3.80
2022-11-12T03:06:03.541Z,3.75
2022-11-12T03:08:31.722Z,3.75
2022-11-12T03:11:00.301Z,3.73
2022-11-12T03:13:30.903Z,3.64
2022-11-12T03:16:05.325Z,3.61
2022-11-12T03:18:37.901Z,3.57
2022-11-12T03:21:10.770Z,3.51
2022-11-12T03:23:38.979Z,3.37
2022-11-12T03:26:08.344Z,3.30
2022-11-12T03:28:39.346Z,3.30
2022-11-12T03:31:08.902Z,3.29
2022-11-12T03:33:37.498Z,3.18
2022-11-12T03:36:06.201Z,3.16
2022-11-12T03:38:34.366Z,3.20
2022-11-12T03:41:04.061Z,3.22
2022-11-12T03:43:33.464Z,3.33
2022-11-12T03:46:02.755Z,3.34
2022-11-12T03:48:32.186Z,3.33
2022-11-12T03:51:02.779Z,3.29
2022-11-12T03:53:30.801Z,3.30
2022-11-12T03:56:00.112Z,3.29
2022-11-12T03:58:30.742Z,3.30
2022-11-12T04:00:59.426Z,3.31
2022-11-12T04:03:28.065Z,3.33
2022-11-12T04:06:14.550Z,3.27
2022-11-12T04:08:42.784Z,3.19
2022-11-12T04:11:12.947Z,3.16
2022-11-12T04:13:42.145Z,3.27
2022-11-12T04:16:30.455Z,3.29
2022-11-12T04:19:19.931Z,3.29
2022-11-12T04:21:56.094Z,3.30
2022-11-12T04:24:44.083Z,3.24
2022-11-12T04:27:17.298Z,3.24
2022-11-12T04:30:04.937Z,3.22
2022-11-12T04:32:35.797Z,3.23
2022-11-12T04:35:06.561Z,3.26
2022-11-12T04:37:45.518Z,3.34
2022-11-12T04:40:35.025Z,3.34
2022-11-12T04:43:22.743Z,3.26
2022-11-12T04:46:01.542Z,3.19
2022-11-12T04:48:33.756Z,3.26
2022-11-12T04:51:02.283Z,3.29
2022-11-12T04:53:32.061Z,3.26
2022-11-12T04:56:01.162Z,3.33
2022-11-12T04:58:30.161Z,3.29
2022-11-12T05:01:00.180Z,3.19
2022-11-12T05:03:28.238Z,3.15
2022-11-12T05:06:03.724Z,3.13
2022-11-12T05:08:33.403Z,3.20
2022-11-12T05:11:01.357Z,3.30
2022-11-12T05:13:30.711Z,3.26
2022-11-12T05:16:01.686Z,3.27
2022-11-12T05:18:32.129Z,3.29
2022-11-12T05:21:28.669Z,3.30
2022-11-12T05:24:00.842Z,3.31
2022-11-12T05:26:30.618Z,3.31
2022-11-12T05:28:58.612Z,3.29
2022-11-12T05:31:29.415Z,3.24
2022-11-12T05:33:57.844Z,3.22
2022-11-12T05:36:26.088Z,3.23
2022-11-12T05:38:56.516Z,3.15
2022-11-12T05:41:26.240Z,3.15
2022-11-12T05:43:54.555Z,3.12
2022-11-12T05:46:23.913Z,3.16
2022-11-12T05:48:53.276Z,3.12
2022-11-12T05:51:24.447Z,3.12
2022-11-12T05:53:53.161Z,3.15
2022-11-12T05:56:26.059Z,3.12
2022-11-12T05:58:59.077Z,3.13
2022-11-12T06:01:28.811Z,3.15
2022-11-12T06:04:00.979Z,3.12
2022-11-12T06:06:29.480Z,3.08
2022-11-12T06:08:58.250Z,3.12
2022-11-12T06:11:27.263Z,3.10
2022-11-12T06:14:00.228Z,3.10
2022-11-12T06:16:29.204Z,3.06
2022-11-12T06:18:57.706Z,3.09
2022-11-12T06:21:28.963Z,3.10
2022-11-12T06:24:01.110Z,3.09
2022-11-12T06:26:33.818Z,3.15
2022-11-12T06:29:07.624Z,3.24
2022-11-12T06:31:35.641Z,3.24
2022-11-12T06:34:04.173Z,3.30
2022-11-12T06:36:32.294Z,3.30
2022-11-12T06:39:00.264Z,3.33
2022-11-12T06:41:31.187Z,3.34
2022-11-12T06:44:02.994Z,3.34
2022-11-12T06:46:32.051Z,3.36
2022-11-12T06:49:04.665Z,3.33
2022-11-12T06:51:33.290Z,3.37
2022-11-12T06:54:04.911Z,3.39
2022-11-12T06:56:34.012Z,3.44
2022-11-12T06:59:07.722Z,3.50
2022-11-12T07:01:37.341Z,3.56
2022-11-12T07:04:10.862Z,3.64
2022-11-12T07:06:40.266Z,3.77
2022-11-12T07:09:12.058Z,3.95
2022-11-12T07:11:40.019Z,4.16
2022-11-12T07:14:11.719Z,4.42
2022-11-12T07:16:40.567Z,4.61
2022-11-12T07:19:11.862Z,4.83
2022-11-12T07:21:40.377Z,5.07
2022-11-12T07:24:09.657Z,5.35
2022-11-12T07:26:41.911Z,5.50
2022-11-12T07:29:30.115Z,5.55
2022-11-12T07:32:09.044Z,5.63
2022-11-12T07:34:37.007Z,5.78
2022-11-12T07:37:06.987Z,5.95
2022-11-12T07:39:35.216Z,6.10
2022-11-12T07:42:03.721Z,6.25
2022-11-12T07:44:33.375Z,6.45
2022-11-12T07:47:03.998Z,6.53
2022-11-12T07:49:32.307Z,6.72
2022-11-12T07:52:00.814Z,6.84
2022-11-12T07:54:29.383Z,7.00
2022-11-12T07:56:58.059Z,7.11
2022-11-12T07:59:26.280Z,7.28
2022-11-12T08:02:04.409Z,7.44
2022-11-12T08:04:35.827Z,7.56
2022-11-12T08:07:05.085Z,7.69
2022-11-12T08:09:35.789Z,7.86
2022-11-12T08:12:12.901Z,8.03
2022-11-12T08:14:44.428Z,8.16
2022-11-12T08:17:13.859Z,8.27
2022-11-12T08:19:49.274Z,8.47
2022-11-12T08:22:17.608Z,8.65
2022-11-12T08:24:45.712Z,8.82
2022-11-12T08:27:14.069Z,9.08
2022-11-12T08:29:42.445Z,9.29
2022-11-12T08:32:11.095Z,9.60
2022-11-12T08:34:44.079Z,9.92
2022-11-12T08:37:13.479Z,10.09
2022-11-12T08:39:41.795Z,10.26
2022-11-12T08:42:11.599Z,10.45
2022-11-12T08:44:41.538Z,10.76
2022-11-12T08:47:12.256Z,10.92
2022-11-12T08:49:48.071Z,11.10
2022-11-12T08:52:16.722Z,11.22
2022-11-12T08:54:47.145Z,11.34
2022-11-12T08:57:15.387Z,11.55
2022-11-12T08:59:44.811Z,11.77
2022-11-12T09:02:14.453Z,12.01
2022-11-12T09:04:46.465Z,12.26
2022-11-12T09:10:15.677Z,12.82
2022-11-12T09:12:43.954Z,13.00
2022-11-12T09:15:44.403Z,13.20
2022-11-12T09:18:05.925Z,13.44
2022-11-12T09:20:37.106Z,13.57
2022-11-12T09:23:09.480Z,13.83
2022-11-12T09:25:44.608Z,14.09
2022-11-12T09:28:14.783Z,14.37
2022-11-12T09:30:47.486Z,14.19
2022-11-12T09:33:16.770Z,14.05
2022-11-12T09:35:47.192Z,14.09
2022-11-12T09:38:16.619Z,14.28
2022-11-12T09:41:01.646Z,14.53
2022-11-12T09:43:32.911Z,14.71
2022-11-12T09:49:01.938Z,14.64
2022-11-12T09:51:34.008Z,14.67
2022-11-12T09:54:07.072Z,14.79
2022-11-12T09:56:35.221Z,14.72
2022-11-12T09:59:03.539Z,14.61
2022-11-12T10:01:43.403Z,14.64
2022-11-12T10:04:25.813Z,14.44
2022-11-12T10:07:03.177Z,14.38
2022-11-12T10:09:38.316Z,14.36
2022-11-12T10:12:34.049Z,14.34
2022-11-12T10:15:40.000Z,14.26
2022-11-12T10:18:14.038Z,14.31
2022-11-12T10:20:47.812Z,14.26
2022-11-12T10:23:21.677Z,14.17
2022-11-12T10:25:51.437Z,14.06
2022-11-12T10:28:35.666Z,13.59
2022-11-12T10:31:13.743Z,13.48
2022-11-12T10:33:43.589Z,13.52
2022-11-12T10:36:33.416Z,13.68
2022-11-12T10:39:03.192Z,13.61
2022-11-12T10:41:33.610Z,13.62
2022-11-12T10:44:05.593Z,13.63
2022-11-12T10:46:36.313Z,13.75
2022-11-12T10:49:07.042Z,13.82
2022-11-12T10:51:39.622Z,13.85
2022-11-12T10:54:31.023Z,13.83
2022-11-12T10:57:17.232Z,13.86
2022-11-12T10:59:45.272Z,13.92
2022-11-12T11:02:17.416Z,14.03
2022-11-12T11:04:47.062Z,14.09
2022-11-12T11:07:22.609Z,13.92
2022-11-12T11:09:56.763Z,13.81
2022-11-12T11:12:27.378Z,13.75
2022-11-12T11:15:10.835Z,13.83
2022-11-12T11:17:39.841Z,13.95
2022-11-12T11:20:17.147Z,14.09
2022-11-12T11:22:47.571Z,14.19
2022-11-12T11:25:20.873Z,14.30
2022-11-12T11:28:05.740Z,14.38
2022-11-12T11:30:38.348Z,14.36
2022-11-12T11:33:20.297Z,14.36
2022-11-12T11:35:56.330Z,14.36
2022-11-12T11:38:36.740Z,14.30
2022-11-12T11:41:18.245Z,14.28
2022-11-12T11:44:03.376Z,14.23
2022-11-12T11:46:51.688Z,14.13
2022-11-12T11:49:39.991Z,14.05
2022-11-12T11:52:28.521Z,14.03
2022-11-12T11:55:07.004Z,14.06
2022-11-12T11:57:45.321Z,14.09
2022-11-12T12:00:19.353Z,14.02
2022-11-12T12:03:18.381Z,13.82
2022-11-12T12:05:55.010Z,13.76
2022-11-12T12:08:29.153Z,13.79
2022-11-12T12:11:09.776Z,13.78
2022-11-12T12:13:54.802Z,13.76
2022-11-12T12:16:43.937Z,13.75
2022-11-12T12:19:24.156Z,13.76
2022-11-12T12:21:52.593Z,13.85
2022-11-12T12:24:25.128Z,13.76
2022-11-12T12:26:55.673Z,13.68
2022-11-12T12:29:32.492Z,13.57
2022-11-12T12:32:03.818Z,13.49
2022-11-12T12:34:36.442Z,13.44
2022-11-12T12:37:09.062Z,13.37
2022-11-12T12:39:42.299Z,13.31
2022-11-12T12:42:18.341Z,13.27
2022-11-12T12:45:03.052Z,13.19
2022-11-12T12:47:35.612Z,13.11
2022-11-12T12:50:16.059Z,13.07
2022-11-12T12:53:00.923Z,12.97
2022-11-12T12:55:39.877Z,12.96
2022-11-12T12:58:23.350Z,12.87
2022-11-12T13:00:54.793Z,12.83
2022-11-12T13:03:52.183Z,12.79
2022-11-12T13:06:28.783Z,12.77
2022-11-12T13:09:02.077Z,12.76
2022-11-12T13:12:06.782Z,12.73
2022-11-12T13:14:59.381Z,12.72
2022-11-12T13:17:53.791Z,12.65
2022-11-12T13:20:40.900Z,12.61
2022-11-12T13:24:00.972Z,12.55
2022-11-12T13:26:59.347Z,12.51
2022-11-12T13:29:46.242Z,12.46
2022-11-12T13:32:32.311Z,12.44
2022-11-12T13:35:26.542Z,12.39
2022-11-12T13:37:57.865Z,12.36
2022-11-12T13:40:39.347Z,12.33
2022-11-12T13:43:32.678Z,12.33
2022-11-12T13:46:13.750Z,12.33
2022-11-12T13:48:44.245Z,12.33
2022-11-12T13:51:25.013Z,12.29
2022-11-12T13:53:56.977Z,12.26
2022-11-12T13:56:30.785Z,12.28
2022-11-12T13:59:11.927Z,12.28
2022-11-12T14:01:41.185Z,12.24
2022-11-12T14:04:11.921Z,12.18
2022-11-12T14:06:44.509Z,12.12
2022-11-12T14:09:24.004Z,12.07
2022-11-12T14:12:06.979Z,12.01
2022-11-12T14:14:43.971Z,11.98
2022-11-12T14:17:22.640Z,11.91
2022-11-12T14:20:41.533Z,11.89
2022-11-12T14:23:24.494Z,11.93
2022-11-12T14:25:54.698Z,11.86
2022-11-12T14:28:35.925Z,11.79
2022-11-12T14:31:07.456Z,11.73
2022-11-12T14:33:42.917Z,11.64
2022-11-12T14:36:17.329Z,11.62
2022-11-12T14:38:50.715Z,11.60
2022-11-12T14:41:21.916Z,11.60
2022-11-12T14:44:10.925Z,11.62
2022-11-12T14:46:56.229Z,11.52
2022-11-12T14:49:31.410Z,11.42
2022-11-12T14:52:07.306Z,11.29
2022-11-12T14:54:40.747Z,11.19
2022-11-12T14:57:14.040Z,11.11
2022-11-12T14:59:43.208Z,11.02
2022-11-12T15:02:46.858Z,10.89
2022-11-12T15:05:17.496Z,10.76
2022-11-12T15:07:55.716Z,10.61
2022-11-12T15:10:34.786Z,10.56
2022-11-12T15:13:05.060Z,10.49
2022-11-12T15:15:34.582Z,10.36
2022-11-12T15:18:06.071Z,10.22
2022-11-12T15:20:38.664Z,10.12
2022-11-12T15:23:17.890Z,9.95
2022-11-12T15:25:58.644Z,9.84
2022-11-12T15:28:30.703Z,9.74
2022-11-12T15:31:12.247Z,9.68
2022-11-12T15:33:40.604Z,9.60
2022-11-12T15:36:16.737Z,9.55
2022-11-12T15:38:50.121Z,9.50
2022-11-12T15:41:26.398Z,9.39
2022-11-12T15:43:54.748Z,9.29
2022-11-12T15:46:23.471Z,9.23
2022-11-12T15:48:56.292Z,9.23
2022-11-12T15:51:24.526Z,9.20
2022-11-12T15:53:57.944Z,9.09
2022-11-12T15:56:27.290Z,8.99
2022-11-12T15:58:56.125Z,8.95
2022-11-12T16:01:24.504Z,8.90
2022-11-12T16:03:52.923Z,8.90
2022-11-12T16:06:21.437Z,8.83
2022-11-12T16:08:55.869Z,8.83
2022-11-12T16:11:39.014Z,8.73
2022-11-12T16:14:12.116Z,8.58
2022-11-12T16:16:43.891Z,8.55
2022-11-12T16:19:17.702Z,8.45
2022-11-12T16:21:46.332Z,8.29
2022-11-12T16:24:14.687Z,8.20
2022-11-12T16:26:43.135Z,8.10
2022-11-12T16:29:16.607Z,7.99
2022-11-12T16:31:47.360Z,7.87
2022-11-12T16:34:16.779Z,7.81
2022-11-12T16:36:46.712Z,7.69
2022-11-12T16:39:15.273Z,7.59
2022-11-12T16:41:43.622Z,7.45
2022-11-12T16:44:17.706Z,7.36
2022-11-12T16:46:45.718Z,7.36
2022-11-12T16:49:15.183Z,7.31
2022-11-12T16:51:43.307Z,7.35
2022-11-12T16:54:11.682Z,7.38
2022-11-12T16:56:40.982Z,7.42
2022-11-12T16:59:14.995Z,7.36
2022-11-12T17:01:46.741Z,7.30
2022-11-12T17:04:17.830Z,7.21
2022-11-12T17:06:47.190Z,7.11
2022-11-12T17:09:17.392Z,7.01
2022-11-12T17:11:47.693Z,6.92
2022-11-12T17:14:18.410Z,6.83
2022-11-12T17:16:46.384Z,6.79
2022-11-12T17:19:15.148Z,6.76
2022-11-12T17:21:47.995Z,6.79
2022-11-12T17:24:16.454Z,6.84
2022-11-12T17:26:44.442Z,6.90
2022-11-12T17:29:14.064Z,6.97
2022-11-12T17:31:53.117Z,6.99
2022-11-12T17:34:22.136Z,6.94
2022-11-12T17:36:50.212Z,6.89
2022-11-12T17:39:18.419Z,7.00
2022-11-12T17:41:46.968Z,7.07
2022-11-12T17:44:17.448Z,7.07
2022-11-12T17:46:50.451Z,7.04
2022-11-12T17:49:19.661Z,7.03
2022-11-12T17:51:47.681Z,6.92
2022-11-12T17:54:18.612Z,6.87
2022-11-12T17:56:50.838Z,6.77
2022-11-12T17:59:19.231Z,6.66
2022-11-12T18:01:48.622Z,6.57
2022-11-12T18:04:19.251Z,6.53
2022-11-12T18:06:47.939Z,6.39
2022-11-12T18:09:16.326Z,6.29
2022-11-12T18:11:46.668Z,6.22
2022-11-12T18:14:15.100Z,6.14
2022-11-12T18:16:43.519Z,6.05
2022-11-12T18:19:15.367Z,5.98
2022-11-12T18:21:45.700Z,5.93
2022-11-12T18:24:15.525Z,5.90
2022-11-12T18:26:45.651Z,5.90
2022-11-12T18:29:13.664Z,5.93
2022-11-12T18:31:44.206Z,6.03
2022-11-12T18:34:16.813Z,6.04
2022-11-12T18:36:46.915Z,6.00
2022-11-12T18:39:15.330Z,5.89
2022-11-12T18:41:45.783Z,5.86
2022-11-12T18:44:19.029Z,5.76
2022-11-12T18:46:53.093Z,5.66
2022-11-12T18:49:22.459Z,5.62
2022-11-12T18:51:53.041Z,5.70
2022-11-12T18:54:21.221Z,5.80
2022-11-12T18:56:49.459Z,5.80
2022-11-12T18:59:17.775Z,5.84
2022-11-12T19:01:45.895Z,5.94
2022-11-12T19:04:14.142Z,5.98
2022-11-12T19:06:43.988Z,6.03
2022-11-12T19:09:14.177Z,6.13
2022-11-12T19:11:44.464Z,6.22
2022-11-12T19:14:12.586Z,6.29
2022-11-12T19:16:44.815Z,6.34
2022-11-12T19:19:12.961Z,6.26
2022-11-12T19:21:41.129Z,6.18
2022-11-12T19:24:10.478Z,6.14
2022-11-12T19:26:46.348Z,6.05
2022-11-12T19:29:14.580Z,6.00
2022-11-12T19:31:43.013Z,5.95
2022-11-12T19:34:13.566Z,5.90
2022-11-12T19:36:43.178Z,5.89
2022-11-12T19:39:14.347Z,5.86
2022-11-12T19:41:42.313Z,5.89
2022-11-12T19:44:10.460Z,5.89
2022-11-12T19:46:39.009Z,5.83
2022-11-12T19:49:10.391Z,5.89
2022-11-12T19:51:38.354Z,5.94
2022-11-12T19:54:09.977Z,6.00
2022-11-12T19:56:39.903Z,5.97
2022-11-12T19:59:08.133Z,5.97
2022-11-12T20:01:37.669Z,5.94
2022-11-12T20:04:11.920Z,5.95
2022-11-12T20:06:40.245Z,6.01
2022-11-12T20:09:10.213Z,6.03
2022-11-12T20:11:42.329Z,6.08
2022-11-12T20:14:18.993Z,6.03
2022-11-12T20:16:47.103Z,6.00
2022-11-12T20:19:23.797Z,6.01
2022-11-12T20:21:55.124Z,5.95
2022-11-12T20:24:25.101Z,5.94
2022-11-12T20:26:58.757Z,5.90
2022-11-12T20:29:29.170Z,5.93
2022-11-12T20:31:58.897Z,5.93
2022-11-12T20:34:27.157Z,5.91
2022-11-12T20:36:58.393Z,5.90
2022-11-12T20:39:26.861Z,5.87
2022-11-12T20:42:01.089Z,5.94
2022-11-12T20:44:32.519Z,5.95
2022-11-12T20:47:01.590Z,5.95
2022-11-12T20:49:31.936Z,5.90
2022-11-12T20:52:01.562Z,5.89
2022-11-12T20:54:29.839Z,5.87
2022-11-12T20:57:01.155Z,5.83
2022-11-12T20:59:29.253Z,5.77
2022-11-12T21:01:58.775Z,5.76
2022-11-12T21:04:28.516Z,5.74
2022-11-12T21:07:01.067Z,5.76
2022-11-12T21:09:38.432Z,5.76
2022-11-12T21:12:13.333Z,5.70
2022-11-12T21:14:44.810Z,5.71
2022-11-12T21:17:15.574Z,5.67
2022-11-12T21:19:44.242Z,5.66
2022-11-12T21:22:14.858Z,5.66
2022-11-12T21:24:43.751Z,5.63
2022-11-12T21:27:14.926Z,5.62
2022-11-12T21:29:44.950Z,5.59
2022-11-12T21:32:12.955Z,5.59
2022-11-12T21:34:41.315Z,5.55
2022-11-12T21:37:11.735Z,5.52
2022-11-12T21:39:39.953Z,5.50
2022-11-12T21:42:10.892Z,5.50
2022-11-12T21:44:42.785Z,5.53
2022-11-12T21:47:12.021Z,5.53
2022-11-12T21:49:40.078Z,5.47
2022-11-12T21:52:09.341Z,5.47
2022-11-12T21:54:41.207Z,5.49
2022-11-12T21:57:16.111Z,5.45
2022-11-12T21:59:47.914Z,5.40
2022-11-12T22:02:19.407Z,5.35
2022-11-12T22:04:49.481Z,5.34
2022-11-12T22:07:17.842Z,5.31
2022-11-12T22:09:46.144Z,5.24
2022-11-12T22:12:14.274Z,5.21
2022-11-12T22:14:42.485Z,5.25
2022-11-12T22:17:11.847Z,5.34
2022-11-12T22:19:42.437Z,5.34
2022-11-12T22:22:10.598Z,5.34
2022-11-12T22:24:38.804Z,5.32
2022-11-12T22:27:07.987Z,5.38
2022-11-12T22:29:38.794Z,5.38
2022-11-12T22:32:06.826Z,5.46
2022-11-12T22:34:37.702Z,5.47
2022-11-12T22:37:05.986Z,5.46
2022-11-12T22:39:34.475Z,5.47
2022-11-12T22:42:02.480Z,5.43
2022-11-12T22:44:30.915Z,5.46
2022-11-12T22:46:59.077Z,5.46
2022-11-12T22:49:27.475Z,5.47
2022-11-12T22:51:57.006Z,5.47
2022-11-12T22:54:25.680Z,5.47
2022-11-12T22:56:53.909Z,5.52
2022-11-12T22:59:22.254Z,5.50
2022-11-12T23:01:50.253Z,5.50
2022-11-12T23:04:21.173Z,5.53
2022-11-12T23:06:49.514Z,5.56
2022-11-12T23:09:19.194Z,5.57
2022-11-12T23:11:47.365Z,5.59
2022-11-12T23:14:16.246Z,5.59
2022-11-12T23:16:45.286Z,5.59
2022-11-12T23:19:18.659Z,5.62
2022-11-12T23:21:47.373Z,5.65
2022-11-12T23:24:15.959Z,5.66
2022-11-12T23:26:45.601Z,5.70
2022-11-12T23:29:14.595Z,5.71
2022-11-12T23:31:44.615Z,5.74
2022-11-12T23:34:12.909Z,5.76
2022-11-12T23:36:40.877Z,5.70
2022-11-12T23:39:09.235Z,5.69
2022-11-12T23:41:37.562Z,5.63
2022-11-12T23:44:07.283Z,5.65
2022-11-12T23:46:37.856Z,5.63
2022-11-12T23:49:08.257Z,5.63
2022-11-12T23:51:36.418Z,5.65
2022-11-12T23:54:04.566Z,5.67
2022-11-12T23:56:33.147Z,5.69
2022-11-12T23:59:05.099Z,5.71
